Henry, Nebraska
Current Conditions -  °F | °C
As of 5:53 AM on Sunday 21 Dec 2014 (Local Time) from KBFF Reporting Station
Clear Clear  
Wind Chill: 11°   Ceiling: Unl
Heat Index: 20°   Visibility: 10mi
Dew Point: 16°   Wind: 7mph
Humidity: 85%   Direction: 90°E
Pressure: 29.69"   Gusts: NA
Location:  42°N, 104.05°W
Report Text: KBFF 211253Z AUTO 09006KT 10SM CLR M07/M09 A2969 RMK AO2 SLP088 T10671089
Loading
Personal Weather Stations






























Interactive Weather Map New forecast layout! Learn more

10-Day Weather Forecast

Advertisements
Track Severe Weather on mobile